sensor_id;sensor_type;location;lat;lon;timestamp;P1;durP1;ratioP1;P2;durP2;ratioP2
42632;SDS011;28261;53.304;-6.284;2024-03-08T00:01:49;48.42;;;19.23;;
42632;SDS011;28261;53.304;-6.284;2024-03-08T00:03:53;49.85;;;19.63;;
42632;SDS011;28261;53.304;-6.284;2024-03-08T00:05:57;51.17;;;20.33;;
42632;SDS011;28261;53.304;-6.284;2024-03-08T00:08:01;44.80;;;18.63;;
42632;SDS011;28261;53.304;-6.284;2024-03-08T00:10:06;50.55;;;19.52;;
42632;SDS011;28261;53.304;-6.284;2024-03-08T00:12:15;47.85;;;18.38;;
42632;SDS011;28261;53.304;-6.284;2024-03-08T00:14:19;52.65;;;20.17;;
42632;SDS011;28261;53.304;-6.284;2024-03-08T00:16:22;45.58;;;19.15;;
42632;SDS011;28261;53.304;-6.284;2024-03-08T00:18:27;49.47;;;20.10;;
42632;SDS011;28261;53.304;-6.284;2024-03-08T00:20:32;44.35;;;17.88;;
42632;SDS011;28261;53.304;-6.284;2024-03-08T00:22:36;43.45;;;17.63;;
42632;SDS011;28261;53.304;-6.284;2024-03-08T00:24:40;42.17;;;18.23;;
42632;SDS011;28261;53.304;-6.284;2024-03-08T00:26:44;46.50;;;19.23;;
42632;SDS011;28261;53.304;-6.284;2024-03-08T00:28:48;44.58;;;18.88;;
42632;SDS011;28261;53.304;-6.284;2024-03-08T00:30:52;49.00;;;18.92;;
42632;SDS011;28261;53.304;-6.284;2024-03-08T00:32:56;44.80;;;17.65;;
42632;SDS011;28261;53.304;-6.284;2024-03-08T00:35:02;43.95;;;17.90;;
42632;SDS011;28261;53.304;-6.284;2024-03-08T00:37:06;49.38;;;18.63;;
42632;SDS011;28261;53.304;-6.284;2024-03-08T00:39:10;43.70;;;19.40;;
42632;SDS011;28261;53.304;-6.284;2024-03-08T00:41:14;46.20;;;18.60;;
42632;SDS011;28261;53.304;-6.284;2024-03-08T00:43:18;51.80;;;18.83;;
42632;SDS011;28261;53.304;-6.284;2024-03-08T00:45:22;45.47;;;19.30;;
42632;SDS011;28261;53.304;-6.284;2024-03-08T00:47:26;45.50;;;18.77;;
42632;SDS011;28261;53.304;-6.284;2024-03-08T00:49:31;48.45;;;20.27;;
42632;SDS011;28261;53.304;-6.284;2024-03-08T00:51:36;48.13;;;18.65;;
42632;SDS011;28261;53.304;-6.284;2024-03-08T00:53:40;46.85;;;18.85;;
42632;SDS011;28261;53.304;-6.284;2024-03-08T00:55:45;48.92;;;18.85;;
42632;SDS011;28261;53.304;-6.284;2024-03-08T00:57:48;49.28;;;20.08;;
42632;SDS011;28261;53.304;-6.284;2024-03-08T00:59:52;43.30;;;17.52;;
42632;SDS011;28261;53.304;-6.284;2024-03-08T01:01:56;42.38;;;17.30;;
42632;SDS011;28261;53.304;-6.284;2024-03-08T01:04:01;45.95;;;17.98;;
42632;SDS011;28261;53.304;-6.284;2024-03-08T01:06:05;39.60;;;16.63;;
42632;SDS011;28261;53.304;-6.284;2024-03-08T01:08:10;54.42;;;20.05;;
42632;SDS011;28261;53.304;-6.284;2024-03-08T01:10:15;50.05;;;18.70;;
42632;SDS011;28261;53.304;-6.284;2024-03-08T01:12:18;51.35;;;18.48;;
42632;SDS011;28261;53.304;-6.284;2024-03-08T01:14:22;46.42;;;17.85;;
42632;SDS011;28261;53.304;-6.284;2024-03-08T01:16:27;50.85;;;19.65;;
42632;SDS011;28261;53.304;-6.284;2024-03-08T01:18:31;48.25;;;19.02;;
42632;SDS011;28261;53.304;-6.284;2024-03-08T01:20:35;45.92;;;16.38;;
42632;SDS011;28261;53.304;-6.284;2024-03-08T01:22:40;48.65;;;18.20;;
42632;SDS011;28261;53.304;-6.284;2024-03-08T01:24:45;52.45;;;18.42;;
42632;SDS011;28261;53.304;-6.284;2024-03-08T01:26:49;41.00;;;17.25;;
42632;SDS011;28261;53.304;-6.284;2024-03-08T01:28:53;42.03;;;17.42;;
42632;SDS011;28261;53.304;-6.284;2024-03-08T01:30:57;47.83;;;17.83;;
42632;SDS011;28261;53.304;-6.284;2024-03-08T01:33:01;49.97;;;18.98;;
42632;SDS011;28261;53.304;-6.284;2024-03-08T01:35:05;40.90;;;16.98;;
42632;SDS011;28261;53.304;-6.284;2024-03-08T01:37:11;47.50;;;18.83;;
42632;SDS011;28261;53.304;-6.284;2024-03-08T01:39:16;47.22;;;16.75;;
42632;SDS011;28261;53.304;-6.284;2024-03-08T01:41:21;44.45;;;17.17;;
42632;SDS011;28261;53.304;-6.284;2024-03-08T01:43:26;42.95;;;17.45;;
42632;SDS011;28261;53.304;-6.284;2024-03-08T01:45:31;46.67;;;18.92;;
42632;SDS011;28261;53.304;-6.284;2024-03-08T01:47:37;41.70;;;17.38;;
42632;SDS011;28261;53.304;-6.284;2024-03-08T01:49:41;42.53;;;15.73;;
42632;SDS011;28261;53.304;-6.284;2024-03-08T01:51:44;44.03;;;16.85;;
42632;SDS011;28261;53.304;-6.284;2024-03-08T01:53:48;38.35;;;16.38;;
42632;SDS011;28261;53.304;-6.284;2024-03-08T01:55:53;38.72;;;16.48;;
42632;SDS011;28261;53.304;-6.284;2024-03-08T01:58:01;44.83;;;15.85;;
42632;SDS011;28261;53.304;-6.284;2024-03-08T02:00:07;38.83;;;17.48;;
42632;SDS011;28261;53.304;-6.284;2024-03-08T02:02:14;36.95;;;15.45;;
42632;SDS011;28261;53.304;-6.284;2024-03-08T02:04:21;37.78;;;15.50;;
42632;SDS011;28261;53.304;-6.284;2024-03-08T02:06:26;31.85;;;13.20;;
42632;SDS011;28261;53.304;-6.284;2024-03-08T02:08:29;36.70;;;16.05;;
42632;SDS011;28261;53.304;-6.284;2024-03-08T02:10:33;39.08;;;15.98;;
42632;SDS011;28261;53.304;-6.284;2024-03-08T02:12:37;35.95;;;15.13;;
42632;SDS011;28261;53.304;-6.284;2024-03-08T02:14:42;40.58;;;16.83;;
42632;SDS011;28261;53.304;-6.284;2024-03-08T02:16:46;38.08;;;14.98;;
42632;SDS011;28261;53.304;-6.284;2024-03-08T02:18:50;36.75;;;14.75;;
42632;SDS011;28261;53.304;-6.284;2024-03-08T02:20:54;38.92;;;14.50;;
42632;SDS011;28261;53.304;-6.284;2024-03-08T02:22:59;40.28;;;14.73;;
42632;SDS011;28261;53.304;-6.284;2024-03-08T02:25:03;37.47;;;15.18;;
42632;SDS011;28261;53.304;-6.284;2024-03-08T02:27:09;41.85;;;15.07;;
42632;SDS011;28261;53.304;-6.284;2024-03-08T02:29:15;38.20;;;15.93;;
42632;SDS011;28261;53.304;-6.284;2024-03-08T02:31:17;34.85;;;15.00;;
42632;SDS011;28261;53.304;-6.284;2024-03-08T02:33:22;33.80;;;14.50;;
42632;SDS011;28261;53.304;-6.284;2024-03-08T02:35:27;36.13;;;15.75;;
42632;SDS011;28261;53.304;-6.284;2024-03-08T02:37:33;36.33;;;15.07;;
42632;SDS011;28261;53.304;-6.284;2024-03-08T02:39:37;33.60;;;14.25;;
42632;SDS011;28261;53.304;-6.284;2024-03-08T02:41:41;34.78;;;15.55;;
42632;SDS011;28261;53.304;-6.284;2024-03-08T02:43:45;37.47;;;14.75;;
42632;SDS011;28261;53.304;-6.284;2024-03-08T02:45:49;33.83;;;16.15;;
42632;SDS011;28261;53.304;-6.284;2024-03-08T02:47:56;31.38;;;15.10;;
42632;SDS011;28261;53.304;-6.284;2024-03-08T02:50:00;39.05;;;15.68;;
42632;SDS011;28261;53.304;-6.284;2024-03-08T02:52:03;36.83;;;14.80;;
42632;SDS011;28261;53.304;-6.284;2024-03-08T02:54:11;39.10;;;15.88;;
42632;SDS011;28261;53.304;-6.284;2024-03-08T02:56:14;38.28;;;15.13;;
42632;SDS011;28261;53.304;-6.284;2024-03-08T02:58:19;37.65;;;15.07;;
42632;SDS011;28261;53.304;-6.284;2024-03-08T03:00:23;34.97;;;13.40;;
42632;SDS011;28261;53.304;-6.284;2024-03-08T03:02:26;37.22;;;14.80;;
42632;SDS011;28261;53.304;-6.284;2024-03-08T03:04:30;37.53;;;15.30;;
42632;SDS011;28261;53.304;-6.284;2024-03-08T03:06:36;33.15;;;14.13;;
42632;SDS011;28261;53.304;-6.284;2024-03-08T03:08:40;39.72;;;15.50;;
42632;SDS011;28261;53.304;-6.284;2024-03-08T03:10:47;33.50;;;13.18;;
42632;SDS011;28261;53.304;-6.284;2024-03-08T03:12:51;35.10;;;14.35;;
42632;SDS011;28261;53.304;-6.284;2024-03-08T03:14:56;32.25;;;14.43;;
42632;SDS011;28261;53.304;-6.284;2024-03-08T03:17:00;32.55;;;12.98;;
42632;SDS011;28261;53.304;-6.284;2024-03-08T03:19:04;37.38;;;14.48;;
42632;SDS011;28261;53.304;-6.284;2024-03-08T03:21:09;31.58;;;12.18;;
42632;SDS011;28261;53.304;-6.284;2024-03-08T03:23:15;33.05;;;13.60;;
42632;SDS011;28261;53.304;-6.284;2024-03-08T03:25:22;32.85;;;15.02;;
42632;SDS011;28261;53.304;-6.284;2024-03-08T03:27:28;33.53;;;14.55;;
42632;SDS011;28261;53.304;-6.284;2024-03-08T03:29:32;34.63;;;14.80;;
42632;SDS011;28261;53.304;-6.284;2024-03-08T03:31:36;36.88;;;14.32;;
42632;SDS011;28261;53.304;-6.284;2024-03-08T03:33:42;37.15;;;13.32;;
42632;SDS011;28261;53.304;-6.284;2024-03-08T03:35:46;35.20;;;14.05;;
42632;SDS011;28261;53.304;-6.284;2024-03-08T03:37:49;31.95;;;14.20;;
42632;SDS011;28261;53.304;-6.284;2024-03-08T03:40:03;35.10;;;14.95;;
42632;SDS011;28261;53.304;-6.284;2024-03-08T03:42:08;32.35;;;14.25;;
42632;SDS011;28261;53.304;-6.284;2024-03-08T03:44:13;38.60;;;14.07;;
42632;SDS011;28261;53.304;-6.284;2024-03-08T03:46:17;31.90;;;13.35;;
42632;SDS011;28261;53.304;-6.284;2024-03-08T03:48:21;25.92;;;13.20;;
42632;SDS011;28261;53.304;-6.284;2024-03-08T03:50:25;32.45;;;14.45;;
42632;SDS011;28261;53.304;-6.284;2024-03-08T03:52:29;30.63;;;13.57;;
42632;SDS011;28261;53.304;-6.284;2024-03-08T03:54:33;29.95;;;13.63;;
42632;SDS011;28261;53.304;-6.284;2024-03-08T03:56:37;35.47;;;15.23;;
42632;SDS011;28261;53.304;-6.284;2024-03-08T03:58:41;28.42;;;13.98;;
42632;SDS011;28261;53.304;-6.284;2024-03-08T04:00:47;31.55;;;13.32;;
42632;SDS011;28261;53.304;-6.284;2024-03-08T04:02:51;27.00;;;12.98;;
42632;SDS011;28261;53.304;-6.284;2024-03-08T04:04:54;33.95;;;13.75;;
42632;SDS011;28261;53.304;-6.284;2024-03-08T04:06:57;34.42;;;15.02;;
42632;SDS011;28261;53.304;-6.284;2024-03-08T04:09:02;30.17;;;13.30;;
42632;SDS011;28261;53.304;-6.284;2024-03-08T04:13:10;27.40;;;11.93;;
42632;SDS011;28261;53.304;-6.284;2024-03-08T04:15:14;31.05;;;12.85;;
42632;SDS011;28261;53.304;-6.284;2024-03-08T04:17:19;31.40;;;12.60;;
42632;SDS011;28261;53.304;-6.284;2024-03-08T04:19:23;25.13;;;12.70;;
42632;SDS011;28261;53.304;-6.284;2024-03-08T04:21:29;28.05;;;11.68;;
42632;SDS011;28261;53.304;-6.284;2024-03-08T04:23:33;28.45;;;12.23;;
42632;SDS011;28261;53.304;-6.284;2024-03-08T04:25:38;27.83;;;11.50;;
42632;SDS011;28261;53.304;-6.284;2024-03-08T04:27:44;33.85;;;13.05;;
42632;SDS011;28261;53.304;-6.284;2024-03-08T04:29:49;29.38;;;12.45;;
42632;SDS011;28261;53.304;-6.284;2024-03-08T04:31:53;32.47;;;13.73;;
42632;SDS011;28261;53.304;-6.284;2024-03-08T04:33:59;35.10;;;13.23;;
42632;SDS011;28261;53.304;-6.284;2024-03-08T04:36:03;29.95;;;13.27;;
42632;SDS011;28261;53.304;-6.284;2024-03-08T04:38:07;29.08;;;12.20;;
42632;SDS011;28261;53.304;-6.284;2024-03-08T04:40:11;30.02;;;12.45;;
42632;SDS011;28261;53.304;-6.284;2024-03-08T04:42:15;29.73;;;12.70;;
42632;SDS011;28261;53.304;-6.284;2024-03-08T04:44:20;30.38;;;12.40;;
42632;SDS011;28261;53.304;-6.284;2024-03-08T04:46:24;36.17;;;15.13;;
42632;SDS011;28261;53.304;-6.284;2024-03-08T04:50:34;30.58;;;11.23;;
42632;SDS011;28261;53.304;-6.284;2024-03-08T04:52:40;31.25;;;12.30;;
42632;SDS011;28261;53.304;-6.284;2024-03-08T04:54:44;30.25;;;13.20;;
42632;SDS011;28261;53.304;-6.284;2024-03-08T04:56:48;30.83;;;13.27;;
42632;SDS011;28261;53.304;-6.284;2024-03-08T04:58:50;33.30;;;13.70;;
42632;SDS011;28261;53.304;-6.284;2024-03-08T05:00:55;32.28;;;12.90;;
42632;SDS011;28261;53.304;-6.284;2024-03-08T05:02:59;31.58;;;12.30;;
42632;SDS011;28261;53.304;-6.284;2024-03-08T05:05:04;32.03;;;12.52;;
42632;SDS011;28261;53.304;-6.284;2024-03-08T05:07:10;31.42;;;11.88;;
42632;SDS011;28261;53.304;-6.284;2024-03-08T05:09:14;30.17;;;12.50;;
42632;SDS011;28261;53.304;-6.284;2024-03-08T05:11:19;32.38;;;13.20;;
42632;SDS011;28261;53.304;-6.284;2024-03-08T05:13:23;24.73;;;10.73;;
42632;SDS011;28261;53.304;-6.284;2024-03-08T05:15:29;26.90;;;10.90;;
42632;SDS011;28261;53.304;-6.284;2024-03-08T05:17:37;30.52;;;12.20;;
42632;SDS011;28261;53.304;-6.284;2024-03-08T05:19:42;34.75;;;13.43;;
42632;SDS011;28261;53.304;-6.284;2024-03-08T05:21:46;30.80;;;12.70;;
42632;SDS011;28261;53.304;-6.284;2024-03-08T05:23:53;34.38;;;12.82;;
42632;SDS011;28261;53.304;-6.284;2024-03-08T05:25:57;32.33;;;12.25;;
42632;SDS011;28261;53.304;-6.284;2024-03-08T05:28:01;30.23;;;13.40;;
42632;SDS011;28261;53.304;-6.284;2024-03-08T05:32:15;28.27;;;12.00;;
42632;SDS011;28261;53.304;-6.284;2024-03-08T05:34:20;28.60;;;12.23;;
42632;SDS011;28261;53.304;-6.284;2024-03-08T05:36:24;31.00;;;13.20;;
42632;SDS011;28261;53.304;-6.284;2024-03-08T05:38:28;31.52;;;11.43;;
42632;SDS011;28261;53.304;-6.284;2024-03-08T05:40:34;29.65;;;13.60;;
42632;SDS011;28261;53.304;-6.284;2024-03-08T05:42:38;23.63;;;11.63;;
42632;SDS011;28261;53.304;-6.284;2024-03-08T05:44:42;29.48;;;11.77;;
42632;SDS011;28261;53.304;-6.284;2024-03-08T05:46:46;32.03;;;12.13;;
42632;SDS011;28261;53.304;-6.284;2024-03-08T05:48:50;31.60;;;11.25;;
42632;SDS011;28261;53.304;-6.284;2024-03-08T05:50:53;27.02;;;11.60;;
42632;SDS011;28261;53.304;-6.284;2024-03-08T05:52:59;26.77;;;11.10;;
42632;SDS011;28261;53.304;-6.284;2024-03-08T05:55:03;30.15;;;10.30;;
42632;SDS011;28261;53.304;-6.284;2024-03-08T05:57:10;25.65;;;10.77;;
42632;SDS011;28261;53.304;-6.284;2024-03-08T05:59:15;25.45;;;11.60;;
42632;SDS011;28261;53.304;-6.284;2024-03-08T06:01:20;21.67;;;9.55;;
42632;SDS011;28261;53.304;-6.284;2024-03-08T06:03:24;21.90;;;9.73;;
42632;SDS011;28261;53.304;-6.284;2024-03-08T06:05:28;23.90;;;9.95;;
42632;SDS011;28261;53.304;-6.284;2024-03-08T06:07:31;25.33;;;10.70;;
42632;SDS011;28261;53.304;-6.284;2024-03-08T06:09:35;23.38;;;10.45;;
42632;SDS011;28261;53.304;-6.284;2024-03-08T06:11:39;25.55;;;11.43;;
42632;SDS011;28261;53.304;-6.284;2024-03-08T06:13:46;28.10;;;10.90;;
42632;SDS011;28261;53.304;-6.284;2024-03-08T06:15:52;27.48;;;10.88;;
42632;SDS011;28261;53.304;-6.284;2024-03-08T06:17:56;24.20;;;10.13;;
42632;SDS011;28261;53.304;-6.284;2024-03-08T06:20:00;23.35;;;9.68;;
42632;SDS011;28261;53.304;-6.284;2024-03-08T06:22:04;24.35;;;10.57;;
42632;SDS011;28261;53.304;-6.284;2024-03-08T06:24:08;33.25;;;11.40;;
42632;SDS011;28261;53.304;-6.284;2024-03-08T06:26:12;26.52;;;11.38;;
42632;SDS011;28261;53.304;-6.284;2024-03-08T06:28:16;26.00;;;11.63;;
42632;SDS011;28261;53.304;-6.284;2024-03-08T06:30:21;28.17;;;10.63;;
42632;SDS011;28261;53.304;-6.284;2024-03-08T06:32:26;28.08;;;12.18;;
42632;SDS011;28261;53.304;-6.284;2024-03-08T06:34:32;28.55;;;11.55;;
42632;SDS011;28261;53.304;-6.284;2024-03-08T06:36:36;30.67;;;12.77;;
42632;SDS011;28261;53.304;-6.284;2024-03-08T06:38:41;27.38;;;11.00;;
42632;SDS011;28261;53.304;-6.284;2024-03-08T06:40:48;28.20;;;12.25;;
42632;SDS011;28261;53.304;-6.284;2024-03-08T06:44:56;28.35;;;10.80;;
42632;SDS011;28261;53.304;-6.284;2024-03-08T06:47:08;28.88;;;10.40;;
42632;SDS011;28261;53.304;-6.284;2024-03-08T06:49:12;28.50;;;10.95;;
42632;SDS011;28261;53.304;-6.284;2024-03-08T06:51:18;25.67;;;10.60;;
42632;SDS011;28261;53.304;-6.284;2024-03-08T06:53:23;25.60;;;10.82;;
42632;SDS011;28261;53.304;-6.284;2024-03-08T06:55:29;25.23;;;10.85;;
42632;SDS011;28261;53.304;-6.284;2024-03-08T06:57:33;23.77;;;10.45;;
42632;SDS011;28261;53.304;-6.284;2024-03-08T06:59:37;24.42;;;11.73;;
42632;SDS011;28261;53.304;-6.284;2024-03-08T07:01:41;27.10;;;11.13;;
42632;SDS011;28261;53.304;-6.284;2024-03-08T07:03:46;26.75;;;11.75;;
42632;SDS011;28261;53.304;-6.284;2024-03-08T07:05:50;26.90;;;10.88;;
42632;SDS011;28261;53.304;-6.284;2024-03-08T07:07:54;25.83;;;10.57;;
42632;SDS011;28261;53.304;-6.284;2024-03-08T07:09:58;25.45;;;10.90;;
42632;SDS011;28261;53.304;-6.284;2024-03-08T07:12:02;28.50;;;10.85;;
42632;SDS011;28261;53.304;-6.284;2024-03-08T07:14:06;26.65;;;11.43;;
42632;SDS011;28261;53.304;-6.284;2024-03-08T07:16:10;24.83;;;10.98;;
42632;SDS011;28261;53.304;-6.284;2024-03-08T07:18:15;29.40;;;12.70;;
42632;SDS011;28261;53.304;-6.284;2024-03-08T07:20:20;28.42;;;11.20;;
42632;SDS011;28261;53.304;-6.284;2024-03-08T07:22:25;25.52;;;11.15;;
42632;SDS011;28261;53.304;-6.284;2024-03-08T07:24:29;29.15;;;11.02;;
42632;SDS011;28261;53.304;-6.284;2024-03-08T07:26:42;34.10;;;12.80;;
42632;SDS011;28261;53.304;-6.284;2024-03-08T07:28:46;33.58;;;11.30;;
42632;SDS011;28261;53.304;-6.284;2024-03-08T07:30:48;29.02;;;12.13;;
42632;SDS011;28261;53.304;-6.284;2024-03-08T07:33:04;32.47;;;14.10;;
42632;SDS011;28261;53.304;-6.284;2024-03-08T07:37:14;25.20;;;10.13;;
42632;SDS011;28261;53.304;-6.284;2024-03-08T07:39:18;32.05;;;13.18;;
42632;SDS011;28261;53.304;-6.284;2024-03-08T07:41:23;25.80;;;11.50;;
42632;SDS011;28261;53.304;-6.284;2024-03-08T07:43:27;27.30;;;11.23;;
42632;SDS011;28261;53.304;-6.284;2024-03-08T07:45:31;28.75;;;12.07;;
42632;SDS011;28261;53.304;-6.284;2024-03-08T07:47:33;28.52;;;12.20;;
42632;SDS011;28261;53.304;-6.284;2024-03-08T07:49:38;25.30;;;11.32;;
42632;SDS011;28261;53.304;-6.284;2024-03-08T07:51:42;28.00;;;12.52;;
42632;SDS011;28261;53.304;-6.284;2024-03-08T07:53:47;28.05;;;12.30;;
42632;SDS011;28261;53.304;-6.284;2024-03-08T07:55:51;25.27;;;11.25;;
42632;SDS011;28261;53.304;-6.284;2024-03-08T07:57:55;27.58;;;12.50;;
42632;SDS011;28261;53.304;-6.284;2024-03-08T07:59:59;27.90;;;12.00;;
42632;SDS011;28261;53.304;-6.284;2024-03-08T08:02:09;25.33;;;10.82;;
42632;SDS011;28261;53.304;-6.284;2024-03-08T08:04:13;28.02;;;11.15;;
42632;SDS011;28261;53.304;-6.284;2024-03-08T08:06:20;28.15;;;12.07;;
42632;SDS011;28261;53.304;-6.284;2024-03-08T08:08:23;31.02;;;12.05;;
42632;SDS011;28261;53.304;-6.284;2024-03-08T08:10:29;27.65;;;11.60;;
42632;SDS011;28261;53.304;-6.284;2024-03-08T08:12:33;28.52;;;11.90;;
42632;SDS011;28261;53.304;-6.284;2024-03-08T08:14:37;30.30;;;11.18;;
42632;SDS011;28261;53.304;-6.284;2024-03-08T08:16:41;25.92;;;11.43;;
42632;SDS011;28261;53.304;-6.284;2024-03-08T08:18:47;26.40;;;11.27;;
42632;SDS011;28261;53.304;-6.284;2024-03-08T08:20:52;26.20;;;11.25;;
42632;SDS011;28261;53.304;-6.284;2024-03-08T08:22:56;25.77;;;11.60;;
42632;SDS011;28261;53.304;-6.284;2024-03-08T08:24:58;27.08;;;10.45;;
42632;SDS011;28261;53.304;-6.284;2024-03-08T08:27:05;25.77;;;10.68;;
42632;SDS011;28261;53.304;-6.284;2024-03-08T08:29:09;28.65;;;11.35;;
42632;SDS011;28261;53.304;-6.284;2024-03-08T08:31:12;25.42;;;11.05;;
42632;SDS011;28261;53.304;-6.284;2024-03-08T08:33:16;26.85;;;11.07;;
42632;SDS011;28261;53.304;-6.284;2024-03-08T08:35:21;24.13;;;10.02;;
42632;SDS011;28261;53.304;-6.284;2024-03-08T08:37:26;27.98;;;10.68;;
42632;SDS011;28261;53.304;-6.284;2024-03-08T08:39:30;25.50;;;11.02;;
42632;SDS011;28261;53.304;-6.284;2024-03-08T08:41:34;24.42;;;10.73;;
42632;SDS011;28261;53.304;-6.284;2024-03-08T08:43:39;25.30;;;11.52;;
42632;SDS011;28261;53.304;-6.284;2024-03-08T08:45:59;29.42;;;10.80;;
42632;SDS011;28261;53.304;-6.284;2024-03-08T08:48:03;22.35;;;9.60;;
42632;SDS011;28261;53.304;-6.284;2024-03-08T08:50:08;22.30;;;10.15;;
42632;SDS011;28261;53.304;-6.284;2024-03-08T08:52:13;25.55;;;11.60;;
42632;SDS011;28261;53.304;-6.284;2024-03-08T08:54:18;28.05;;;12.95;;
42632;SDS011;28261;53.304;-6.284;2024-03-08T08:56:23;31.48;;;12.20;;
42632;SDS011;28261;53.304;-6.284;2024-03-08T08:58:28;25.23;;;10.75;;
42632;SDS011;28261;53.304;-6.284;2024-03-08T09:00:33;24.73;;;9.75;;
42632;SDS011;28261;53.304;-6.284;2024-03-08T09:02:37;29.63;;;12.02;;
42632;SDS011;28261;53.304;-6.284;2024-03-08T09:04:40;32.22;;;13.10;;
42632;SDS011;28261;53.304;-6.284;2024-03-08T09:06:44;28.00;;;11.70;;
42632;SDS011;28261;53.304;-6.284;2024-03-08T09:08:48;31.77;;;13.32;;
42632;SDS011;28261;53.304;-6.284;2024-03-08T09:10:59;29.98;;;13.10;;
42632;SDS011;28261;53.304;-6.284;2024-03-08T09:13:03;30.35;;;13.68;;
42632;SDS011;28261;53.304;-6.284;2024-03-08T09:15:10;35.67;;;14.15;;
42632;SDS011;28261;53.304;-6.284;2024-03-08T09:17:16;28.60;;;13.07;;
42632;SDS011;28261;53.304;-6.284;2024-03-08T09:19:22;32.28;;;13.70;;
42632;SDS011;28261;53.304;-6.284;2024-03-08T09:23:31;32.85;;;12.45;;
42632;SDS011;28261;53.304;-6.284;2024-03-08T09:25:36;31.45;;;14.25;;
42632;SDS011;28261;53.304;-6.284;2024-03-08T09:27:39;27.38;;;12.90;;
42632;SDS011;28261;53.304;-6.284;2024-03-08T09:29:43;31.98;;;13.60;;
42632;SDS011;28261;53.304;-6.284;2024-03-08T09:31:47;35.15;;;14.05;;
42632;SDS011;28261;53.304;-6.284;2024-03-08T09:33:52;35.55;;;12.95;;
42632;SDS011;28261;53.304;-6.284;2024-03-08T09:35:56;29.70;;;13.55;;
42632;SDS011;28261;53.304;-6.284;2024-03-08T09:38:06;32.58;;;14.13;;
42632;SDS011;28261;53.304;-6.284;2024-03-08T09:40:19;33.08;;;13.80;;
42632;SDS011;28261;53.304;-6.284;2024-03-08T09:42:27;28.35;;;14.48;;
42632;SDS011;28261;53.304;-6.284;2024-03-08T09:44:31;28.48;;;12.13;;
42632;SDS011;28261;53.304;-6.284;2024-03-08T09:46:37;27.30;;;13.38;;
42632;SDS011;28261;53.304;-6.284;2024-03-08T09:48:42;28.60;;;13.05;;
42632;SDS011;28261;53.304;-6.284;2024-03-08T09:50:48;31.88;;;13.00;;
42632;SDS011;28261;53.304;-6.284;2024-03-08T09:52:52;29.80;;;13.82;;
42632;SDS011;28261;53.304;-6.284;2024-03-08T09:55:01;32.70;;;12.60;;
42632;SDS011;28261;53.304;-6.284;2024-03-08T09:57:05;32.35;;;12.90;;
42632;SDS011;28261;53.304;-6.284;2024-03-08T09:59:17;32.17;;;13.18;;
42632;SDS011;28261;53.304;-6.284;2024-03-08T10:01:45;30.92;;;14.00;;
42632;SDS011;28261;53.304;-6.284;2024-03-08T10:03:49;34.05;;;14.27;;
42632;SDS011;28261;53.304;-6.284;2024-03-08T10:05:54;38.30;;;14.48;;
42632;SDS011;28261;53.304;-6.284;2024-03-08T10:08:02;32.88;;;14.02;;
42632;SDS011;28261;53.304;-6.284;2024-03-08T10:10:08;36.10;;;14.15;;
42632;SDS011;28261;53.304;-6.284;2024-03-08T10:12:14;32.05;;;13.65;;
42632;SDS011;28261;53.304;-6.284;2024-03-08T10:14:18;35.15;;;15.43;;
42632;SDS011;28261;53.304;-6.284;2024-03-08T10:16:23;35.42;;;15.05;;
42632;SDS011;28261;53.304;-6.284;2024-03-08T10:18:29;32.20;;;14.18;;
42632;SDS011;28261;53.304;-6.284;2024-03-08T10:20:33;31.63;;;14.32;;
42632;SDS011;28261;53.304;-6.284;2024-03-08T10:22:39;30.08;;;13.35;;
42632;SDS011;28261;53.304;-6.284;2024-03-08T10:24:44;32.65;;;15.25;;
42632;SDS011;28261;53.304;-6.284;2024-03-08T10:28:54;32.35;;;14.15;;
42632;SDS011;28261;53.304;-6.284;2024-03-08T10:31:00;29.70;;;12.70;;
42632;SDS011;28261;53.304;-6.284;2024-03-08T10:33:04;30.02;;;11.70;;
42632;SDS011;28261;53.304;-6.284;2024-03-08T10:35:09;33.67;;;13.60;;
42632;SDS011;28261;53.304;-6.284;2024-03-08T10:37:14;31.27;;;13.07;;
42632;SDS011;28261;53.304;-6.284;2024-03-08T10:39:26;31.88;;;13.40;;
42632;SDS011;28261;53.304;-6.284;2024-03-08T10:41:37;30.63;;;13.52;;
42632;SDS011;28261;53.304;-6.284;2024-03-08T10:43:52;35.13;;;15.50;;
42632;SDS011;28261;53.304;-6.284;2024-03-08T10:46:15;34.80;;;13.68;;
42632;SDS011;28261;53.304;-6.284;2024-03-08T10:48:29;30.98;;;13.55;;
42632;SDS011;28261;53.304;-6.284;2024-03-08T10:50:39;32.30;;;14.98;;
42632;SDS011;28261;53.304;-6.284;2024-03-08T10:52:48;32.17;;;14.63;;
42632;SDS011;28261;53.304;-6.284;2024-03-08T10:54:55;37.10;;;15.60;;
42632;SDS011;28261;53.304;-6.284;2024-03-08T10:57:01;35.28;;;14.98;;
42632;SDS011;28261;53.304;-6.284;2024-03-08T10:59:10;30.27;;;13.57;;
42632;SDS011;28261;53.304;-6.284;2024-03-08T11:01:15;34.45;;;16.65;;
42632;SDS011;28261;53.304;-6.284;2024-03-08T11:05:51;36.80;;;15.15;;
42632;SDS011;28261;53.304;-6.284;2024-03-08T11:07:55;38.78;;;16.83;;
42632;SDS011;28261;53.304;-6.284;2024-03-08T11:10:01;37.17;;;15.43;;
42632;SDS011;28261;53.304;-6.284;2024-03-08T11:12:23;42.85;;;17.00;;
42632;SDS011;28261;53.304;-6.284;2024-03-08T11:14:42;39.90;;;17.02;;
42632;SDS011;28261;53.304;-6.284;2024-03-08T11:16:48;42.22;;;16.35;;
42632;SDS011;28261;53.304;-6.284;2024-03-08T11:18:53;39.85;;;17.20;;
42632;SDS011;28261;53.304;-6.284;2024-03-08T11:20:58;43.58;;;17.08;;
42632;SDS011;28261;53.304;-6.284;2024-03-08T11:23:04;45.28;;;18.42;;
42632;SDS011;28261;53.304;-6.284;2024-03-08T11:25:30;40.22;;;16.38;;
42632;SDS011;28261;53.304;-6.284;2024-03-08T11:27:38;38.65;;;15.70;;
42632;SDS011;28261;53.304;-6.284;2024-03-08T11:29:59;31.20;;;13.93;;
42632;SDS011;28261;53.304;-6.284;2024-03-08T11:32:17;37.03;;;18.05;;
42632;SDS011;28261;53.304;-6.284;2024-03-08T11:34:24;27.65;;;13.25;;
42632;SDS011;28261;53.304;-6.284;2024-03-08T11:36:28;36.88;;;16.95;;
42632;SDS011;28261;53.304;-6.284;2024-03-08T11:38:34;37.45;;;16.27;;
42632;SDS011;28261;53.304;-6.284;2024-03-08T11:40:45;36.05;;;15.48;;
42632;SDS011;28261;53.304;-6.284;2024-03-08T11:42:51;40.95;;;16.17;;
42632;SDS011;28261;53.304;-6.284;2024-03-08T11:44:57;37.13;;;15.73;;
42632;SDS011;28261;53.304;-6.284;2024-03-08T11:47:00;40.83;;;16.58;;
42632;SDS011;28261;53.304;-6.284;2024-03-08T11:49:04;39.45;;;15.80;;
42632;SDS011;28261;53.304;-6.284;2024-03-08T11:51:08;41.72;;;17.05;;
42632;SDS011;28261;53.304;-6.284;2024-03-08T11:53:15;40.45;;;17.40;;
42632;SDS011;28261;53.304;-6.284;2024-03-08T11:55:19;42.55;;;16.02;;
42632;SDS011;28261;53.304;-6.284;2024-03-08T11:57:28;36.75;;;15.30;;
42632;SDS011;28261;53.304;-6.284;2024-03-08T11:59:32;37.28;;;16.17;;
42632;SDS011;28261;53.304;-6.284;2024-03-08T12:01:36;41.28;;;16.40;;
42632;SDS011;28261;53.304;-6.284;2024-03-08T12:03:39;41.03;;;17.75;;
42632;SDS011;28261;53.304;-6.284;2024-03-08T12:05:44;38.60;;;15.98;;
42632;SDS011;28261;53.304;-6.284;2024-03-08T12:07:55;34.85;;;16.35;;
42632;SDS011;28261;53.304;-6.284;2024-03-08T12:10:16;42.67;;;16.52;;
42632;SDS011;28261;53.304;-6.284;2024-03-08T12:12:21;39.63;;;16.02;;
42632;SDS011;28261;53.304;-6.284;2024-03-08T12:14:28;31.15;;;15.07;;
42632;SDS011;28261;53.304;-6.284;2024-03-08T12:16:33;39.63;;;16.98;;
42632;SDS011;28261;53.304;-6.284;2024-03-08T12:18:39;43.90;;;16.92;;
42632;SDS011;28261;53.304;-6.284;2024-03-08T12:20:43;37.72;;;14.07;;